createdAt,value
2023-03-15T00:02:22.208Z,100261.44
2023-03-15T00:07:25.952Z,100275.28
2023-03-15T00:12:29.951Z,100288.31
2023-03-15T00:17:32.251Z,100298.63
2023-03-15T00:22:35.683Z,100311.16
2023-03-15T00:27:37.866Z,100328.34
2023-03-15T00:32:39.792Z,100326.75
2023-03-15T00:37:45.335Z,100337.19
2023-03-15T00:42:47.405Z,100340.53
2023-03-15T00:47:50.103Z,100350.75
2023-03-15T00:52:53.880Z,100348.09
2023-03-15T00:57:57.083Z,100345.44
2023-03-15T01:02:59.338Z,100354.03
2023-03-15T01:08:02.646Z,100362.63
2023-03-15T01:13:04.713Z,100369.47
2023-03-15T01:18:07.070Z,100371.81
2023-03-15T01:23:10.141Z,100382.97
2023-03-15T01:28:12.078Z,100385.59
2023-03-15T01:33:13.990Z,100396.50
2023-03-15T01:38:17.776Z,100398.88
2023-03-15T01:43:21.977Z,100404.69
2023-03-15T01:48:28.136Z,100407.00
2023-03-15T01:53:33.200Z,100401.53
2023-03-15T01:58:38.692Z,100408.44
2023-03-15T02:03:45.023Z,100411.19
2023-03-15T02:08:52.096Z,100416.03
2023-03-15T02:13:56.401Z,100412.72
2023-03-15T02:18:58.949Z,100417.81
2023-03-15T02:24:12.620Z,100425.13
2023-03-15T02:29:16.456Z,100422.63
2023-03-15T02:34:18.585Z,100430.44
2023-03-15T02:39:22.085Z,100445.91
2023-03-15T02:44:29.202Z,100441.81
2023-03-15T02:49:35.889Z,100446.16
2023-03-15T02:54:37.992Z,100461.09
2023-03-15T02:59:41.612Z,100467.44
2023-03-15T03:04:43.698Z,100469.09
2023-03-15T03:09:45.862Z,100480.41
2023-03-15T03:14:49.426Z,100472.88
2023-03-15T03:19:51.803Z,100483.31
2023-03-15T03:24:53.866Z,100485.00
2023-03-15T03:29:57.404Z,100491.66
2023-03-15T03:34:59.692Z,100494.19
2023-03-15T03:40:01.779Z,100494.81
2023-03-15T03:45:07.994Z,100511.78
2023-03-15T03:50:11.641Z,100529.03
2023-03-15T03:55:14.013Z,100534.09
2023-03-15T04:00:21.569Z,100542.06
2023-03-15T04:05:25.525Z,100537.81
2023-03-15T04:10:28.741Z,100543.97
2023-03-15T04:15:33.709Z,100546.56
2023-03-15T04:20:38.020Z,100549.13
2023-03-15T04:25:41.758Z,100554.47
2023-03-15T04:30:45.600Z,100573.47
2023-03-15T04:35:49.145Z,100571.50
2023-03-15T04:40:52.241Z,100569.69
2023-03-15T04:45:56.149Z,100566.19
2023-03-15T04:50:58.963Z,100593.69
2023-03-15T04:56:04.747Z,100599.88
2023-03-15T05:01:09.101Z,100615.63
2023-03-15T05:06:12.500Z,100626.34
2023-03-15T05:11:15.041Z,100629.06
2023-03-15T05:16:18.590Z,100635.09
2023-03-15T05:21:21.372Z,100644.41
2023-03-15T05:26:23.670Z,100646.22
2023-03-15T05:31:27.604Z,100652.78
2023-03-15T05:36:41.829Z,100663.78
2023-03-15T05:41:47.937Z,100673.78
2023-03-15T05:46:53.009Z,100677.59
2023-03-15T05:51:56.035Z,100692.75
2023-03-15T05:56:59.789Z,100700.97
2023-03-15T06:02:03.936Z,100703.69
2023-03-15T06:07:06.024Z,100730.16
2023-03-15T06:12:09.150Z,100723.38
2023-03-15T06:17:13.470Z,100734.13
2023-03-15T06:22:16.940Z,100737.78
2023-03-15T06:27:18.825Z,100748.88
2023-03-15T06:32:22.436Z,100744.59
2023-03-15T06:37:34.644Z,100766.75
2023-03-15T06:42:37.403Z,100755.00
2023-03-15T06:47:40.840Z,100774.50
2023-03-15T06:52:42.699Z,100770.31
2023-03-15T06:57:45.633Z,100775.53
2023-03-15T07:02:49.758Z,100777.47
2023-03-15T07:07:51.503Z,100791.19
2023-03-15T07:12:53.880Z,100803.38
2023-03-15T07:17:58.106Z,100808.47
2023-03-15T07:23:00.513Z,100805.84
2023-03-15T07:28:02.699Z,100810.75
2023-03-15T07:33:05.933Z,100808.19
2023-03-15T07:38:07.942Z,100818.94
2023-03-15T07:43:09.668Z,100821.97
2023-03-15T07:48:13.296Z,100833.47
2023-03-15T07:53:15.598Z,100832.28
2023-03-15T07:58:19.815Z,100838.25
2023-03-15T08:03:24.057Z,100835.16
2023-03-15T08:08:26.275Z,100840.06
2023-03-15T08:13:28.121Z,100852.00
2023-03-15T08:18:31.825Z,100852.91
2023-03-15T08:23:33.806Z,100859.94
2023-03-15T08:28:35.539Z,100862.59
2023-03-15T08:33:38.702Z,100884.44
2023-03-15T08:38:41.822Z,100880.09
2023-03-15T08:43:43.585Z,100890.78
2023-03-15T08:48:46.718Z,100897.63
2023-03-15T08:53:48.678Z,100900.22
2023-03-15T08:58:50.973Z,100909.78
2023-03-15T09:03:55.579Z,100920.91
2023-03-15T09:08:57.804Z,100929.88
2023-03-15T09:13:59.583Z,100923.09
2023-03-15T09:19:03.182Z,100935.34
2023-03-15T09:24:06.062Z,100933.59
2023-03-15T09:29:08.554Z,100948.97
2023-03-15T09:34:12.066Z,100948.00
2023-03-15T09:39:17.700Z,100964.34
2023-03-15T09:44:35.552Z,100980.19
2023-03-15T09:49:45.735Z,100983.28
2023-03-15T09:54:52.518Z,100988.47
2023-03-15T09:59:56.487Z,100989.25
2023-03-15T10:05:09.203Z,100994.38
2023-03-15T10:10:17.979Z,101001.75
2023-03-15T10:15:39.699Z,100999.41
2023-03-15T10:20:47.535Z,101006.28
2023-03-15T10:25:51.741Z,101007.59
2023-03-15T10:31:00.651Z,101008.84
2023-03-15T10:36:15.003Z,101015.56
2023-03-15T10:41:29.217Z,101010.97
2023-03-15T10:46:31.347Z,101021.81
2023-03-15T10:51:39.418Z,101021.44
2023-03-15T10:56:46.725Z,101016.22
2023-03-15T11:01:51.186Z,101015.53
2023-03-15T11:07:02.475Z,101019.88
2023-03-15T11:12:06.850Z,101015.72
2023-03-15T11:17:16.545Z,101017.91
2023-03-15T11:22:20.259Z,101017.06
2023-03-15T11:27:24.959Z,101022.88
2023-03-15T11:32:30.236Z,101028.34
2023-03-15T11:37:40.593Z,101030.03
2023-03-15T11:42:48.592Z,101023.50
2023-03-15T11:47:56.131Z,101035.03
2023-03-15T11:53:00.848Z,101024.38
2023-03-15T11:58:27.693Z,101044.38
2023-03-15T12:03:37.924Z,101020.72
2023-03-15T12:08:47.512Z,101038.09
2023-03-15T12:14:03.232Z,101030.97
2023-03-15T12:19:11.534Z,101032.94
2023-03-15T12:24:23.487Z,101026.03
2023-03-15T12:29:28.861Z,101029.47
2023-03-15T12:34:38.062Z,101030.97
2023-03-15T12:39:44.471Z,101037.19
2023-03-15T12:44:46.572Z,101039.78
2023-03-15T12:49:48.814Z,101037.22
2023-03-15T12:55:01.424Z,101043.72
2023-03-15T13:00:05.901Z,101036.56
2023-03-15T13:05:17.190Z,101041.09
2023-03-15T13:10:39.938Z,101050.81
2023-03-15T13:15:50.030Z,101031.38
2023-03-15T13:21:09.112Z,101058.59
2023-03-15T13:26:29.950Z,101063.81
2023-03-15T13:31:32.774Z,101051.66
2023-03-15T13:36:40.886Z,101055.94
2023-03-15T13:41:44.584Z,101062.50
2023-03-15T13:46:48.647Z,101066.53
2023-03-15T13:51:53.712Z,101084.50
2023-03-15T13:57:03.191Z,101086.31
2023-03-15T14:02:06.326Z,101095.25
2023-03-15T14:07:29.726Z,101102.31
2023-03-15T14:12:33.219Z,101100.50
2023-03-15T14:17:35.373Z,101102.34
2023-03-15T14:22:42.087Z,101105.16
2023-03-15T14:27:45.599Z,101117.50
2023-03-15T14:32:53.510Z,101101.72
2023-03-15T14:38:03.854Z,101097.00
2023-03-15T14:43:08.660Z,101093.81
2023-03-15T14:48:15.658Z,101094.31
2023-03-15T14:53:20.970Z,101091.00
2023-03-15T14:58:24.800Z,101095.38
2023-03-15T15:03:34.080Z,101097.25
2023-03-15T15:08:38.452Z,101109.34
2023-03-15T15:13:42.853Z,101115.66
2023-03-15T15:18:44.647Z,101112.03
2023-03-15T15:23:57.806Z,101115.63
2023-03-15T15:29:01.572Z,101127.66
2023-03-15T15:34:04.016Z,101137.81
2023-03-15T15:39:20.599Z,101149.69
2023-03-15T15:44:24.748Z,101154.91
2023-03-15T15:49:26.897Z,101157.59
2023-03-15T15:54:35.852Z,101168.97
2023-03-15T15:59:39.347Z,101169.69
2023-03-15T16:04:42.469Z,101172.56
2023-03-15T16:09:46.715Z,101197.59
2023-03-15T16:14:50.232Z,101204.75
2023-03-15T16:19:53.634Z,101209.97
2023-03-15T16:24:58.332Z,101211.69
2023-03-15T16:30:02.627Z,101218.44
2023-03-15T16:35:06.117Z,101210.22
2023-03-15T16:40:15.559Z,101223.03
2023-03-15T16:45:19.768Z,101233.16
2023-03-15T16:50:21.916Z,101249.47
2023-03-15T16:55:26.345Z,101253.53
2023-03-15T17:00:30.133Z,101277.63
2023-03-15T17:05:33.000Z,101275.66
2023-03-15T17:10:36.041Z,101283.09
2023-03-15T17:15:40.573Z,101295.00
2023-03-15T17:20:43.423Z,101300.50
2023-03-15T17:25:45.273Z,101307.22
2023-03-15T17:30:51.603Z,101328.16
2023-03-15T17:35:57.531Z,101335.72
2023-03-15T17:40:59.687Z,101333.63
2023-03-15T17:46:03.343Z,101343.03
2023-03-15T17:51:05.743Z,101341.69
2023-03-15T17:56:08.361Z,101344.84
2023-03-15T18:01:15.763Z,101358.50
2023-03-15T18:06:19.476Z,101359.16
2023-03-15T18:11:25.508Z,101363.22
2023-03-15T18:16:29.453Z,101371.38
2023-03-15T18:21:31.836Z,101377.38
2023-03-15T18:26:33.934Z,101386.63
2023-03-15T18:31:37.552Z,101387.09
2023-03-15T18:36:39.499Z,101389.94
2023-03-15T18:41:42.049Z,101403.78
2023-03-15T18:46:45.651Z,101411.19
2023-03-15T18:51:48.050Z,101411.75
2023-03-15T18:56:50.792Z,101415.91
2023-03-15T19:01:53.977Z,101415.19
2023-03-15T19:06:56.569Z,101414.22
2023-03-15T19:11:59.104Z,101421.09
2023-03-15T19:17:02.856Z,101414.34
2023-03-15T19:22:08.708Z,101428.88
2023-03-15T19:27:11.532Z,101424.66
2023-03-15T19:32:15.133Z,101431.41
2023-03-15T19:37:19.601Z,101442.13
2023-03-15T19:42:23.222Z,101449.31
2023-03-15T19:47:27.100Z,101450.66
2023-03-15T19:52:30.311Z,101450.97
2023-03-15T19:57:32.738Z,101457.94
2023-03-15T20:02:36.509Z,101464.75
2023-03-15T20:07:39.742Z,101470.56
2023-03-15T20:12:42.679Z,101480.59
2023-03-15T20:17:48.003Z,101478.84
2023-03-15T20:22:50.869Z,101487.22
2023-03-15T20:27:53.365Z,101484.63
2023-03-15T20:32:57.284Z,101488.75
2023-03-15T20:38:00.187Z,101495.47
2023-03-15T20:43:03.166Z,101505.78
2023-03-15T20:48:07.283Z,101517.66
2023-03-15T20:53:09.586Z,101517.31
2023-03-15T20:58:11.968Z,101519.25
2023-03-15T21:03:16.473Z,101529.25
2023-03-15T21:08:18.465Z,101533.59
2023-03-15T21:13:20.936Z,101541.84
2023-03-15T21:18:25.049Z,101524.16
2023-03-15T21:23:29.026Z,101532.31
2023-03-15T21:28:31.482Z,101528.22
2023-03-15T21:33:35.260Z,101536.72
2023-03-15T21:38:37.655Z,101547.38
2023-03-15T21:43:39.710Z,101546.53
2023-03-15T21:48:42.885Z,101547.31
2023-03-15T21:53:44.579Z,101544.19
2023-03-15T21:58:46.679Z,101559.94
2023-03-15T22:03:51.248Z,101546.81
2023-03-15T22:08:53.332Z,101560.31
2023-03-15T22:13:55.204Z,101567.16
2023-03-15T22:18:59.202Z,101568.22
2023-03-15T22:24:01.364Z,101572.00
2023-03-15T22:29:03.496Z,101567.06
2023-03-15T22:34:06.980Z,101577.38
2023-03-15T22:39:09.729Z,101590.78
2023-03-15T22:44:11.947Z,101585.84
2023-03-15T22:49:15.006Z,101600.78
2023-03-15T22:54:16.717Z,101596.41
2023-03-15T22:59:18.438Z,101602.25
2023-03-15T23:04:22.457Z,101598.03
2023-03-15T23:09:24.738Z,101598.03
2023-03-15T23:14:27.044Z,101606.97
2023-03-15T23:19:30.765Z,101614.53
2023-03-15T23:24:33.022Z,101599.75
2023-03-15T23:29:47.133Z,101621.09
2023-03-15T23:34:57.583Z,101611.56
2023-03-15T23:39:59.684Z,101622.25
2023-03-15T23:45:01.414Z,101619.69
2023-03-15T23:50:05.887Z,101634.06
2023-03-15T23:55:08.724Z,101620.38
